Scroll down
FLIGHT INFORMATION
KLM Royal Dutch Airlines

KLM691

At Arrival Gate

EHAM
 CYYZ
DATE: 2020-05-22
GATE: F7
GATE DEPARTURE: 13:25
TAKEOFF: 13:38
DATE: 2020-05-22
GATE:  -
LANDING: 20:51
GATE ARRIVAL: 20:59
FLIGHT DATA
Crew: 
Speed: 
937 kph
Altitude: 
39,067 ft
Stage Length: 
5,989.7 km
Block Time: 
7.5 hrs
Flight Time: 
7.2 hrs
Fuel Used: 
66,044 kg
Cleared Route: EHAM EH001 EH051 EH009 EH028 BERGI AMGOD SUPUR MIMVA EMLON LEGRO NALAX LIBSO ODNEK USEKA ERKIT TLA AMLAD SUNOT 5820N 5830N 5840N 5750N HOIST YBC ML DICEN LIVBA VIDGO KISUK LETAK TADMO VIBLI IMEBA LEPUX DUGDA CALVY CYYZ
TRACK DATA
50,000 ft 1,000 kts
AIRCRAFT INFO AND CUMULATIVE STATS
Aircraft Type: 
B744
Registration: 
SELCAL: 
KLJP
MSN/LN: 
26372 / 969
Total Flights: 
8
Total Block Time: 
58.8 hrs
Total Flight Time: 
56.7 hrs
Total Fuel Used: 
530,876 kg
DATALINK LOG | Newest first | Current as of: 2022-01-17 05:05:00
LABEL SEQUENCE CONTENT Dn/Up
QD535720:59 40.7▼ Dn
QC455020:51▼ Dn
2U2608CYYZ 222300Z 14007KT 15SM BKN060 21/09 A2999 RMK SC7 SLP158 DENSITY ALT 1300FT▲ Up
2S2027CYYZ▼ Dn
UM793811CLX 1638 200522 CYQX CLRNCE 521 KLM691 CLEARED TO CYYZ VIA SUNOT 58N020W 58N030W 58N040W 57N050W HOIST MNTN F360 M084 KLJP.▲ Up
UM253811REQUESTING OCEANIC CLRNC CT FQBE CS KLM691 EP SUNOT FL 340 ETA 20:55 SPD 290▼ Dn
2U5323CYYZ 221500Z 36003KT 330V050 15SM FEW260 22/10 A3009 RMK CI1 CI TR SLP190 DENSITY ALT 1400FT▲ Up
2S3507CYYZ▼ Dn
QB195213:38▼ Dn
QA074013:25 186.6▼ Dn
2U1703EHAM 221425Z 23021KT 200V260 9999 FEW023 20/12 Q1016 NOSIG▲ Up
2S5933EHAM▼ Dn
A35337CLEARED TO CYYZ VIA BERGI L602 MIMVA L602 EMLON L602 NALAX L46 ODNEK N110 ERKIT L602 TLA AMLAD SUNOT NATA HOIST N600A YBC J555 ML J553 DICEN Q848 LETAK IMEBA5. SQUAWK 7665.▲ Up
B35327EHAM CYYZ KLM691 PHBFN M ▼ Dn
Q04318[LINK ACK]▲ Up
Q04318[LINK TEST]▼ Dn


AIRCRAFT HISTORY
FLIGHT DATE FLIGHT NO. ORIGIN DESTINATION CLEARED ROUTE BLOCK TIME FLIGHT TIME FUEL USED PILOT
2021-08-20KLM736TNCC EHAM TNCC ACORA SILVA ILMET MILOK RAYAS RAFEE ANNER PORQE DANDE PJM MNOLO NEYDU OBIKE RKDIA 3050N 3840N 4430N 4820N 5010N LULOX UNPUP DAWLY BRIPO GIBSO BEGTO AVANT GWC OCK KOBBI BRAIN GASBA RATLO REDFA EHAM9 hrs8.6 hrs188,626 lbZsolt Szivak
2021-08-20KLM785TNCM TNCC TNCM BOPAT DANDE SCAPA CC106 AGLIS PUXUN TABEB RW111.6 hrs1.4 hrs31,555 lbZsolt Szivak
2021-08-12KLM729EHAM TNCM EHAM BERGI AMGOD SUPUR KOLAG SOPEK OTBED ENCOD NISBI DOPEK ARTIX MOGMO MAMUL ADELU BOLBI SONEX PENIL BABRA GIGTO UNDUX SOPAX RAMOX OGTUG BAGSO DOGAL 5420N 5230N 4740N 4345N 3750N 3055N KAVAX OBIKE NEYDU MNOLO TNCM9.6 hrs9.3 hrs206,739 lbZsolt Szivak
2020-12-16KLM2201CYHZ EHAM CYHZ NOTOP HEMMI SUPRY 4650N 4840N 5030N 5120N DINIM ELSOX EVRIN NEKAP LAZTU ABDUK NUMPO PUPJO INLAK CPT IPRIL KOBBI BRAIN GASBA RATLO REDFA SULUT SUGOL RW18R6.4 hrs6 hrs106,937 lbRoberto Stopnicki
2020-12-15KLM2201CYYZ CYHZ CYYZ OLABA ALONI KATEK CFVXP DAVDA SAVAL CFWCD TALNO EPTUL EBDOT TOXAL EBONY CYHZ1.7 hrs1.6 hrs36,717 lbRoberto Stopnicki
2020-05-22KLM691EHAM CYYZ EHAM EH001 EH051 EH009 EH028 BERGI AMGOD SUPUR MIMVA EMLON LEGRO NALAX LIBSO ODNEK USEKA ERKIT TLA AMLAD SUNOT 5820N 5830N 5840N 5750N HOIST YBC ML DICEN LIVBA VIDGO KISUK LETAK TADMO VIBLI IMEBA LEPUX DUGDA CALVY CYYZ7.5 hrs7.2 hrs145,601 lbTom Landry
2020-01-23KLM755SEQM EHAM SEQM ARNOK BOKAN MER ISKED ESARO MUGBU GIR BOG BUV KOMBO PIE CUC ENPUT STB IROSA BURGA MADNO DOLPO CRO ALCOT PJG SINDA REVOK LUCAS ACORA SILVA ILMET MILOK RAYAS RAFEE ANNER PORQE DANDE PJM MNOLO NEYDU OBIKE RKDIA 3150N 3940N 4530N 5020N ADARA LEKVA SHA LIFFY IDEXA GINIS NATKO LYNAS ROLEX MALUD WAL ASMIM BARTN SONEX DENBY DESIG ELNOD MAMUL EDUXO LAMIX ROGAG AMVEL DOLAS ENITO DIBAL BUKUT LAMSO EHAM10.9 hrs10.6 hrs226,170 lbChris Makris
2020-01-22KLM755EHAM SEQM EHAM IDRID NOGRO LUSOR RINIS IDESI SABER LIVSU MANGO BRASO WESUL EVNAS LAM UGBET CPT GAJIT TOFED SUNFI GAPLI NERTU BEDRA 4820N 4430N 3940N 3250N KAVAX ZABOR SOCCO YIYYO SCAPA BOSCO BEXER PITOS GUDEL KERLI ONDAS ABA NOREX EJA MQU ARNOK SEQM12.2 hrs11.9 hrs228,036 lbChris Makris